createdAt,value
2024-01-27T00:00:34.651Z,84.46
2024-01-27T00:04:21.715Z,83.14
2024-01-27T00:08:07.693Z,83.50
2024-01-27T00:11:54.659Z,82.57
2024-01-27T00:15:43.722Z,82.55
2024-01-27T00:19:30.666Z,82.24
2024-01-27T00:23:16.701Z,81.88
2024-01-27T00:27:03.761Z,82.17
2024-01-27T00:30:53.653Z,81.82
2024-01-27T00:34:40.692Z,82.21
2024-01-27T00:38:27.762Z,81.43
2024-01-27T00:42:14.747Z,81.35
2024-01-27T00:46:03.711Z,81.26
2024-01-27T00:49:50.871Z,81.38
2024-01-27T00:53:36.638Z,81.67
2024-01-27T00:57:23.803Z,81.58
2024-01-27T01:01:12.838Z,81.08
2024-01-27T01:04:59.730Z,81.73
2024-01-27T01:08:48.762Z,81.69
2024-01-27T01:12:35.805Z,80.88
2024-01-27T01:16:24.648Z,80.64
2024-01-27T01:20:12.712Z,80.33
2024-01-27T01:23:58.708Z,79.03
2024-01-27T01:27:45.710Z,78.91
2024-01-27T01:31:34.645Z,79.21
2024-01-27T01:35:23.732Z,78.48
2024-01-27T01:39:10.735Z,78.77
2024-01-27T01:42:57.672Z,79.09
2024-01-27T01:46:46.662Z,77.96
2024-01-27T01:50:34.669Z,78.53
2024-01-27T01:54:23.945Z,78.79
2024-01-27T01:58:10.732Z,78.67
2024-01-27T02:01:59.755Z,78.48
2024-01-27T02:05:48.793Z,78.76
2024-01-27T02:09:34.757Z,78.33
2024-01-27T02:13:35.672Z,77.83
2024-01-27T02:17:24.764Z,78.25
2024-01-27T02:21:12.568Z,78.20
2024-01-27T02:25:02.726Z,78.09
2024-01-27T02:28:50.712Z,78.55
2024-01-27T02:32:36.779Z,78.60
2024-01-27T02:36:23.813Z,78.44
2024-01-27T02:40:13.671Z,78.29
2024-01-27T02:44:00.707Z,78.04
2024-01-27T02:47:47.895Z,77.88
2024-01-27T02:51:36.685Z,77.82
2024-01-27T02:55:25.692Z,77.14
2024-01-27T02:59:12.681Z,76.67
2024-01-27T03:02:58.674Z,76.74
2024-01-27T03:06:45.730Z,76.57
2024-01-27T03:10:34.728Z,75.75
2024-01-27T03:14:22.649Z,75.50
2024-01-27T03:18:08.806Z,77.80
2024-01-27T03:21:55.687Z,78.83
2024-01-27T03:25:44.791Z,78.04
2024-01-27T03:29:31.718Z,77.51
2024-01-27T03:33:20.949Z,77.81
2024-01-27T03:37:07.661Z,79.08
2024-01-27T03:40:56.755Z,79.43
2024-01-27T03:44:43.740Z,79.58
2024-01-27T03:48:29.846Z,82.24
2024-01-27T03:52:16.744Z,83.16
2024-01-27T03:56:06.671Z,82.42
2024-01-27T03:59:56.804Z,82.25
2024-01-27T04:03:43.708Z,80.72
2024-01-27T04:07:30.690Z,80.85
2024-01-27T04:11:19.700Z,80.23
2024-01-27T04:15:07.793Z,80.13
2024-01-27T04:18:56.777Z,78.65
2024-01-27T04:22:43.732Z,79.19
2024-01-27T04:26:32.731Z,78.10
2024-01-27T04:30:21.784Z,76.76
2024-01-27T04:34:08.830Z,77.11
2024-01-27T04:37:55.746Z,76.28
2024-01-27T04:41:44.668Z,76.18
2024-01-27T04:45:32.742Z,75.90
2024-01-27T04:49:19.853Z,75.10
2024-01-27T04:53:06.679Z,74.81
2024-01-27T04:56:55.821Z,75.05
2024-01-27T05:00:44.872Z,74.41
2024-01-27T05:04:34.697Z,73.97
2024-01-27T05:08:22.743Z,74.23
2024-01-27T05:12:11.803Z,73.64
2024-01-27T05:15:58.799Z,73.05
2024-01-27T05:19:44.768Z,73.45
2024-01-27T05:23:31.725Z,74.29
2024-01-27T05:27:21.774Z,73.94
2024-01-27T05:31:08.724Z,74.28
2024-01-27T05:34:54.878Z,73.40
2024-01-27T05:38:41.755Z,73.47
2024-01-27T05:42:30.734Z,73.29
2024-01-27T05:46:17.698Z,73.27
2024-01-27T05:50:03.744Z,73.85
2024-01-27T05:53:52.797Z,74.25
2024-01-27T05:57:41.847Z,73.47
2024-01-27T06:01:28.816Z,73.29
2024-01-27T06:05:16.775Z,73.41
2024-01-27T06:09:03.739Z,73.06
2024-01-27T06:12:54.863Z,72.33
2024-01-27T06:16:43.724Z,72.70
2024-01-27T06:20:30.812Z,72.56
2024-01-27T06:24:17.820Z,72.52
2024-01-27T06:28:06.714Z,72.81
2024-01-27T06:31:53.752Z,71.09
2024-01-27T06:35:39.685Z,71.60
2024-01-27T06:39:26.777Z,71.61
2024-01-27T06:43:15.714Z,72.54
2024-01-27T06:47:02.740Z,72.60
2024-01-27T06:50:48.839Z,72.41
2024-01-27T06:54:35.860Z,72.58
2024-01-27T06:58:24.747Z,72.34
2024-01-27T07:02:11.779Z,72.80
2024-01-27T07:05:58.840Z,73.01
2024-01-27T07:09:45.767Z,72.36
2024-01-27T07:13:37.714Z,71.49
2024-01-27T07:17:24.853Z,71.77
2024-01-27T07:21:10.834Z,71.60
2024-01-27T07:24:59.787Z,71.33
2024-01-27T07:28:48.799Z,71.23
2024-01-27T07:32:38.845Z,70.82
2024-01-27T07:36:27.933Z,71.18
2024-01-27T07:40:16.787Z,71.17
2024-01-27T07:44:05.877Z,70.80
2024-01-27T07:47:52.873Z,70.74
2024-01-27T07:51:38.818Z,70.29
2024-01-27T07:55:27.731Z,70.18
2024-01-27T07:59:21.747Z,70.24
2024-01-27T08:03:08.827Z,70.41
2024-01-27T08:07:04.797Z,69.60
2024-01-27T08:10:51.768Z,69.81
2024-01-27T08:14:41.961Z,69.91
2024-01-27T08:18:30.056Z,70.09
2024-01-27T08:22:18.867Z,70.30
2024-01-27T08:26:06.802Z,70.28
2024-01-27T08:29:58.511Z,71.13
2024-01-27T08:33:54.340Z,71.25
2024-01-27T08:37:46.764Z,71.40
2024-01-27T08:41:33.739Z,71.37
2024-01-27T08:45:24.817Z,71.42
2024-01-27T08:50:38.793Z,72.45
2024-01-27T08:54:25.901Z,73.38
2024-01-27T08:58:13.846Z,73.86
2024-01-27T09:02:01.866Z,74.71
2024-01-27T09:05:52.850Z,75.76
2024-01-27T09:09:39.857Z,77.40
2024-01-27T09:13:26.857Z,79.39
2024-01-27T09:17:13.875Z,80.28
2024-01-27T09:21:02.826Z,81.69
2024-01-27T09:24:49.938Z,83.00
2024-01-27T09:28:35.803Z,84.65
2024-01-27T09:32:23.814Z,86.17
2024-01-27T09:36:12.883Z,87.75
2024-01-27T09:40:00.836Z,88.54
2024-01-27T09:43:48.805Z,89.88
2024-01-27T09:47:36.917Z,90.31
2024-01-27T09:51:27.915Z,90.71
2024-01-27T09:55:14.862Z,90.39
2024-01-27T09:59:03.778Z,90.91
2024-01-27T10:02:52.948Z,91.12
2024-01-27T10:06:43.067Z,92.09
2024-01-27T10:10:34.809Z,92.19
2024-01-27T10:14:26.814Z,91.90
2024-01-27T10:18:26.955Z,91.23
2024-01-27T10:22:20.792Z,91.24
2024-01-27T10:26:08.795Z,89.65
2024-01-27T10:29:55.929Z,89.56
2024-01-27T10:33:42.883Z,89.09
2024-01-27T10:37:31.894Z,86.65
2024-01-27T10:41:27.853Z,86.41
2024-01-27T10:45:17.998Z,86.21
2024-01-27T10:49:10.990Z,85.14
2024-01-27T10:53:13.286Z,84.91
2024-01-27T10:57:04.014Z,84.76
2024-01-27T11:01:01.327Z,84.36
2024-01-27T11:04:48.957Z,84.64
2024-01-27T11:08:47.241Z,84.74
2024-01-27T11:12:37.964Z,84.54
2024-01-27T11:16:35.868Z,83.53
2024-01-27T11:20:26.857Z,83.43
2024-01-27T11:24:15.992Z,82.28
2024-01-27T11:28:03.832Z,82.19
2024-01-27T11:31:49.913Z,82.63
2024-01-27T11:35:37.911Z,83.17
2024-01-27T11:39:41.946Z,82.85
2024-01-27T11:43:29.911Z,82.80
2024-01-27T11:47:16.827Z,83.44
2024-01-27T11:51:03.955Z,84.43
2024-01-27T11:54:52.934Z,84.37
2024-01-27T11:58:40.894Z,84.92
2024-01-27T12:02:27.870Z,83.29
2024-01-27T12:06:16.389Z,83.28
2024-01-27T12:10:05.896Z,82.44
2024-01-27T12:13:52.874Z,83.46
2024-01-27T12:17:39.846Z,85.61
2024-01-27T12:21:27.878Z,87.75
2024-01-27T12:25:28.101Z,88.58
2024-01-27T12:29:16.859Z,88.07
2024-01-27T12:33:05.039Z,89.03
2024-01-27T12:36:59.825Z,88.56
2024-01-27T12:40:49.971Z,89.41
2024-01-27T12:44:42.907Z,89.57
2024-01-27T12:48:32.573Z,90.09
2024-01-27T12:52:20.886Z,90.80
2024-01-27T12:56:09.906Z,91.08
2024-01-27T12:59:57.005Z,91.66
2024-01-27T13:03:45.863Z,92.07
2024-01-27T13:07:33.916Z,92.94
2024-01-27T13:11:22.913Z,93.76
2024-01-27T13:15:09.954Z,93.71
2024-01-27T13:18:56.888Z,94.29
2024-01-27T13:22:43.879Z,94.04
2024-01-27T13:26:32.836Z,94.58
2024-01-27T13:30:24.906Z,94.72
2024-01-27T13:34:13.015Z,94.64
2024-01-27T13:38:00.835Z,94.18
2024-01-27T13:41:49.823Z,94.63
2024-01-27T13:45:36.857Z,94.28
2024-01-27T13:49:23.012Z,93.96
2024-01-27T13:53:13.888Z,93.75
2024-01-27T13:57:02.900Z,93.07
2024-01-27T14:00:49.965Z,93.19
2024-01-27T14:04:36.913Z,92.98
2024-01-27T14:08:25.834Z,92.38
2024-01-27T14:12:14.908Z,92.25
2024-01-27T14:16:01.873Z,91.53
2024-01-27T14:19:48.022Z,92.41
2024-01-27T14:23:36.863Z,91.47
2024-01-27T14:27:34.060Z,91.06
2024-01-27T14:31:21.934Z,91.21
2024-01-27T14:35:08.947Z,90.33
2024-01-27T14:38:56.931Z,90.35
2024-01-27T14:42:47.999Z,90.40
2024-01-27T14:46:35.907Z,90.15
2024-01-27T14:50:22.923Z,89.42
2024-01-27T14:54:11.936Z,89.56
2024-01-27T14:58:00.865Z,89.52
2024-01-27T15:01:47.897Z,89.06
2024-01-27T15:05:33.920Z,89.10
2024-01-27T15:09:23.968Z,89.26
2024-01-27T15:13:12.937Z,89.14
2024-01-27T15:17:00.855Z,89.08
2024-01-27T15:20:47.898Z,89.01
2024-01-27T15:24:34.887Z,88.88
2024-01-27T15:28:24.856Z,88.25
2024-01-27T15:32:11.835Z,88.07
2024-01-27T15:35:58.968Z,87.36
2024-01-27T15:39:47.178Z,87.03
2024-01-27T15:43:38.894Z,87.24
2024-01-27T15:47:27.958Z,86.87
2024-01-27T15:51:15.929Z,87.44
2024-01-27T15:55:02.841Z,87.17
2024-01-27T15:58:51.915Z,87.71
2024-01-27T16:02:38.921Z,87.94
2024-01-27T16:06:25.926Z,88.24
2024-01-27T16:10:13.934Z,87.86
2024-01-27T16:14:05.895Z,87.79
2024-01-27T16:17:52.936Z,87.87
2024-01-27T16:21:38.947Z,87.83
2024-01-27T16:25:27.031Z,87.49
2024-01-27T16:29:15.885Z,87.06
2024-01-27T16:33:03.995Z,86.57
2024-01-27T16:36:49.938Z,86.63
2024-01-27T16:40:36.855Z,86.33
2024-01-27T16:44:25.890Z,86.05
2024-01-27T16:48:14.037Z,85.59
2024-01-27T16:51:59.902Z,85.72
2024-01-27T16:55:48.868Z,85.55
2024-01-27T16:59:37.889Z,84.35
2024-01-27T17:03:25.065Z,83.44
2024-01-27T17:07:11.844Z,82.75
2024-01-27T17:11:00.919Z,82.60
2024-01-27T17:14:50.901Z,82.55
2024-01-27T17:18:39.042Z,81.82
2024-01-27T17:22:24.883Z,81.09
2024-01-27T17:26:11.920Z,81.09
2024-01-27T17:30:00.928Z,81.13
2024-01-27T17:33:48.982Z,81.21
2024-01-27T17:37:34.880Z,80.27
2024-01-27T17:41:21.942Z,80.37
2024-01-27T17:45:10.968Z,80.09
2024-01-27T17:48:59.124Z,80.17
2024-01-27T17:52:46.894Z,79.86
2024-01-27T17:56:37.866Z,80.11
2024-01-27T18:00:30.985Z,79.80
2024-01-27T18:04:17.979Z,79.96
2024-01-27T18:08:03.889Z,80.17
2024-01-27T18:11:50.943Z,80.31
2024-01-27T18:15:39.983Z,80.08
2024-01-27T18:19:27.885Z,80.24
2024-01-27T18:23:13.959Z,80.45
2024-01-27T18:27:01.981Z,80.21
2024-01-27T18:30:51.916Z,80.43
2024-01-27T18:34:40.045Z,80.56
2024-01-27T18:38:25.934Z,80.66
2024-01-27T18:42:12.948Z,80.79
2024-01-27T18:46:04.936Z,81.29
2024-01-27T18:49:52.118Z,81.86
2024-01-27T18:53:40.947Z,81.87
2024-01-27T18:57:28.916Z,82.26
2024-01-27T19:01:19.956Z,82.63
2024-01-27T19:05:11.890Z,82.50
2024-01-27T19:08:58.967Z,82.92
2024-01-27T19:12:45.961Z,82.62
2024-01-27T19:16:34.893Z,83.09
2024-01-27T19:20:23.936Z,83.25
2024-01-27T19:24:09.966Z,83.42
2024-01-27T19:27:59.800Z,83.60
2024-01-27T19:31:53.521Z,83.94
2024-01-27T19:35:40.951Z,83.98
2024-01-27T19:39:31.250Z,84.36
2024-01-27T19:43:19.940Z,84.07
2024-01-27T19:47:15.899Z,84.34
2024-01-27T19:51:07.183Z,84.01
2024-01-27T19:54:53.980Z,84.20
2024-01-27T19:58:41.025Z,84.13
2024-01-27T20:02:32.924Z,84.10
2024-01-27T20:06:24.143Z,84.27
2024-01-27T20:10:10.900Z,84.47
2024-01-27T20:14:00.882Z,84.49
2024-01-27T20:17:51.088Z,84.57
2024-01-27T20:21:41.940Z,84.64
2024-01-27T20:25:28.945Z,84.60
2024-01-27T20:29:15.967Z,84.60
2024-01-27T20:33:06.160Z,84.45
2024-01-27T20:36:55.026Z,84.39
2024-01-27T20:40:41.880Z,84.25
2024-01-27T20:44:29.021Z,84.65
2024-01-27T20:48:23.747Z,84.85
2024-01-27T20:52:11.903Z,84.91
2024-01-27T20:55:58.993Z,84.78
2024-01-27T20:59:46.900Z,84.83
2024-01-27T21:03:36.029Z,85.46
2024-01-27T21:07:25.115Z,85.81
2024-01-27T21:11:17.025Z,86.29
2024-01-27T21:15:04.932Z,86.60
2024-01-27T21:18:54.011Z,87.31
2024-01-27T21:22:40.938Z,87.79
2024-01-27T21:26:27.961Z,87.84
2024-01-27T21:30:15.973Z,88.50
2024-01-27T21:34:04.999Z,89.18
2024-01-27T21:37:51.943Z,89.57
2024-01-27T21:41:37.940Z,89.78
2024-01-27T21:45:29.005Z,90.03
2024-01-27T21:49:19.020Z,90.53
2024-01-27T21:53:05.951Z,90.98
2024-01-27T21:56:51.992Z,91.35
2024-01-27T22:00:39.115Z,91.60
2024-01-27T22:04:27.997Z,91.79
2024-01-27T22:08:14.972Z,91.60
2024-01-27T22:12:01.974Z,91.58
2024-01-27T22:15:51.605Z,91.63
2024-01-27T22:19:43.143Z,90.81
2024-01-27T22:23:29.968Z,90.82
2024-01-27T22:27:15.972Z,90.58
2024-01-27T22:31:02.905Z,90.35
2024-01-27T22:34:53.028Z,90.33
2024-01-27T22:38:39.987Z,89.81
2024-01-27T22:42:25.934Z,89.70
2024-01-27T22:46:12.996Z,89.29
2024-01-27T22:50:02.002Z,89.22
2024-01-27T22:53:48.909Z,89.01
2024-01-27T22:57:34.966Z,88.96
2024-01-27T23:01:22.905Z,88.52
2024-01-27T23:05:11.904Z,88.82
2024-01-27T23:08:58.971Z,88.60
2024-01-27T23:12:44.924Z,89.12
2024-01-27T23:16:31.930Z,88.59
2024-01-27T23:20:23.945Z,88.53
2024-01-27T23:24:11.177Z,88.87
2024-01-27T23:27:57.991Z,88.80
2024-01-27T23:31:45.990Z,88.36
2024-01-27T23:35:34.888Z,88.49
2024-01-27T23:39:22.014Z,88.62
2024-01-27T23:43:07.991Z,88.14
2024-01-27T23:46:54.974Z,88.69
2024-01-27T23:50:44.068Z,89.64
2024-01-27T23:54:31.972Z,90.04
2024-01-27T23:58:18.938Z,90.69
